createdAt,value
2022-11-25T00:11:47.626Z,99919.91
2022-11-25T00:21:51.165Z,99927.76
2022-11-25T00:31:54.845Z,99938.12
2022-11-25T00:42:17.264Z,99946.86
2022-11-25T00:52:24.153Z,99942.16
2022-11-25T01:02:27.902Z,99939.27
2022-11-25T01:12:31.696Z,99942.48
2022-11-25T01:22:35.254Z,99945.35
2022-11-25T01:32:39.554Z,99954.83
2022-11-25T01:42:46.033Z,99953.58
2022-11-25T01:52:53.076Z,99957.21
2022-11-25T02:02:59.056Z,99960.92
2022-11-25T02:13:03.852Z,99974.45
2022-11-25T02:23:25.950Z,99978.74
2022-11-25T02:33:31.160Z,99978.76
2022-11-25T02:43:35.080Z,99978.11
2022-11-25T02:53:40.424Z,99980.41
2022-11-25T03:03:44.212Z,99982.98
2022-11-25T03:13:47.882Z,99989.98
2022-11-25T03:23:52.084Z,100002.34
2022-11-25T03:33:56.441Z,100010.25
2022-11-25T03:44:00.248Z,100011.18
2022-11-25T03:54:03.975Z,100013.15
2022-11-25T04:04:16.026Z,100013.48
2022-11-25T04:14:19.969Z,100020.08
2022-11-25T04:24:24.402Z,100027.63
2022-11-25T04:34:29.713Z,100031.21
2022-11-25T04:44:35.353Z,100039.49
2022-11-25T04:54:40.031Z,100039.18
2022-11-25T05:04:46.021Z,100042.86
2022-11-25T05:14:53.813Z,100043.90
2022-11-25T05:24:59.507Z,100052.55
2022-11-25T05:35:04.571Z,100064.38
2022-11-25T05:45:15.153Z,100066.16
2022-11-25T05:55:20.224Z,100075.71
2022-11-25T06:05:25.450Z,100083.98
2022-11-25T06:15:29.053Z,100094.41
2022-11-25T06:25:34.298Z,100095.33
2022-11-25T06:35:38.222Z,100100.02
2022-11-25T06:45:43.292Z,100105.23
2022-11-25T06:55:46.907Z,100110.34
2022-11-25T07:05:50.399Z,100112.32
2022-11-25T07:15:53.949Z,100121.81
2022-11-25T07:26:06.498Z,100121.33
2022-11-25T07:36:12.542Z,100123.40
2022-11-25T07:46:22.004Z,100131.28
2022-11-25T07:56:30.384Z,100138.42
2022-11-25T08:06:39.576Z,100145.62
2022-11-25T08:16:43.320Z,100144.52
2022-11-25T08:26:48.692Z,100147.58
2022-11-25T08:36:53.012Z,100152.98
2022-11-25T08:46:56.804Z,100157.90
2022-11-25T08:57:00.935Z,100171.44
2022-11-25T09:07:05.467Z,100176.77
2022-11-25T09:17:11.259Z,100175.98
2022-11-25T09:27:14.885Z,100177.83
2022-11-25T09:37:18.567Z,100179.41
2022-11-25T09:47:57.780Z,100175.11
2022-11-25T09:58:25.183Z,100178.25
2022-11-25T10:08:34.351Z,100187.76
2022-11-25T10:18:45.544Z,100195.90
2022-11-25T10:29:15.244Z,100195.33
2022-11-25T10:39:28.522Z,100204.04
2022-11-25T10:49:50.742Z,100210.45
2022-11-25T10:59:58.236Z,100208.99
2022-11-25T11:10:20.570Z,100210.11
2022-11-25T11:20:29.924Z,100215.20
2022-11-25T11:30:34.221Z,100210.52
2022-11-25T11:40:50.681Z,100217.42
2022-11-25T11:51:03.823Z,100218.77
2022-11-25T12:01:34.134Z,100221.15
2022-11-25T12:11:43.538Z,100228.17
2022-11-25T12:21:47.095Z,100229.12
2022-11-25T12:32:02.840Z,100235.50
2022-11-25T12:42:15.699Z,100235.50
2022-11-25T12:52:54.424Z,100239.80
2022-11-25T13:03:19.906Z,100247.54
2022-11-25T13:13:54.430Z,100250.83
2022-11-25T13:23:58.979Z,100264.21
2022-11-25T13:34:08.886Z,100269.00
2022-11-25T13:44:28.500Z,100273.41
2022-11-25T13:54:37.525Z,100281.65
2022-11-25T14:05:07.815Z,100283.89
2022-11-25T14:15:28.857Z,100301.79
2022-11-25T14:25:46.542Z,100305.63
2022-11-25T14:35:55.748Z,100305.27
2022-11-25T14:46:25.388Z,100308.83
2022-11-25T14:56:33.434Z,100317.94
2022-11-25T15:06:41.748Z,100329.87
2022-11-25T15:16:46.044Z,100338.98
2022-11-25T15:26:56.734Z,100340.59
2022-11-25T15:37:03.537Z,100336.77
2022-11-25T15:47:19.268Z,100340.42
2022-11-25T15:57:36.621Z,100341.10
2022-11-25T16:07:55.043Z,100341.30
2022-11-25T16:18:11.703Z,100350.50
2022-11-25T16:28:24.331Z,100356.66
2022-11-25T16:38:27.890Z,100361.52
2022-11-25T16:48:31.821Z,100364.89
2022-11-25T16:58:35.762Z,100368.68
2022-11-25T17:08:39.419Z,100374.48
2022-11-25T17:18:43.173Z,100378.02
2022-11-25T17:29:01.436Z,100372.77
2022-11-25T17:39:05.035Z,100383.11
2022-11-25T17:49:14.720Z,100389.38
2022-11-25T17:59:26.937Z,100388.10
2022-11-25T18:09:30.519Z,100393.52
2022-11-25T18:19:35.136Z,100397.07
2022-11-25T18:29:38.863Z,100409.92
2022-11-25T18:39:42.673Z,100418.90
2022-11-25T18:49:49.769Z,100420.17
2022-11-25T19:00:17.369Z,100425.21
2022-11-25T19:10:22.201Z,100426.59
2022-11-25T19:20:26.695Z,100435.73
2022-11-25T19:30:33.192Z,100440.10
2022-11-25T19:40:39.548Z,100445.58
2022-11-25T19:50:45.305Z,100456.48
2022-11-25T20:00:49.178Z,100463.10
2022-11-25T20:10:53.535Z,100472.72
2022-11-25T20:21:03.610Z,100477.94
2022-11-25T20:31:12.802Z,100491.35
2022-11-25T20:41:17.448Z,100503.80
2022-11-25T20:51:22.830Z,100512.23
2022-11-25T21:01:26.688Z,100514.70
2022-11-25T21:11:33.294Z,100516.36
2022-11-25T21:21:39.795Z,100525.70
2022-11-25T21:31:44.614Z,100531.37
2022-11-25T21:41:48.551Z,100530.93
2022-11-25T21:51:55.233Z,100540.38
2022-11-25T22:01:59.117Z,100542.33
2022-11-25T22:12:03.069Z,100548.17
2022-11-25T22:22:17.906Z,100553.37
2022-11-25T22:32:21.495Z,100561.09
2022-11-25T22:42:28.511Z,100569.11
2022-11-25T22:52:34.444Z,100574.52
2022-11-25T23:02:38.360Z,100579.29
2022-11-25T23:12:42.013Z,100589.63
2022-11-25T23:22:46.100Z,100592.35
2022-11-25T23:32:52.323Z,100589.56
2022-11-25T23:42:56.727Z,100594.20
2022-11-25T23:53:03.881Z,100602.02
